sensor_id;sensor_type;location;lat;lon;timestamp;pressure;altitude;pressure_sealevel;temperature;humidity
47280;BME280;34064;44.942;0.008;2023-03-20T00:00:35;99495.81;;;14.29;52.84
47280;BME280;34064;44.942;0.008;2023-03-20T00:03:08;99489.97;;;14.24;52.64
47280;BME280;34064;44.942;0.008;2023-03-20T00:05:35;99495.59;;;14.21;52.87
47280;BME280;34064;44.942;0.008;2023-03-20T00:08:03;99496.41;;;14.22;53.05
47280;BME280;34064;44.942;0.008;2023-03-20T00:10:35;99505.28;;;14.22;53.01
47280;BME280;34064;44.942;0.008;2023-03-20T00:13:05;99498.72;;;14.15;52.43
47280;BME280;34064;44.942;0.008;2023-03-20T00:15:38;99500.44;;;14.16;52.65
47280;BME280;34064;44.942;0.008;2023-03-20T00:18:20;99506.88;;;14.13;52.71
47280;BME280;34064;44.942;0.008;2023-03-20T00:20:52;99507.97;;;14.11;52.67
47280;BME280;34064;44.942;0.008;2023-03-20T00:23:19;99514.41;;;14.08;52.62
47280;BME280;34064;44.942;0.008;2023-03-20T00:25:47;99520.84;;;14.06;52.69
47280;BME280;34064;44.942;0.008;2023-03-20T00:28:36;99522.78;;;14.03;52.34
47280;BME280;34064;44.942;0.008;2023-03-20T00:33:56;99524.38;;;13.95;52.40
47280;BME280;34064;44.942;0.008;2023-03-20T00:36:26;99527.06;;;13.95;52.60
47280;BME280;34064;44.942;0.008;2023-03-20T00:38:54;99529.34;;;13.88;52.45
47280;BME280;34064;44.942;0.008;2023-03-20T00:44:27;99531.19;;;13.87;52.61
47280;BME280;34064;44.942;0.008;2023-03-20T00:46:59;99526.53;;;13.89;52.45
47280;BME280;34064;44.942;0.008;2023-03-20T00:49:32;99530.22;;;13.88;52.39
47280;BME280;34064;44.942;0.008;2023-03-20T00:52:01;99528.63;;;13.86;52.44
47280;BME280;34064;44.942;0.008;2023-03-20T00:54:29;99534.91;;;13.85;52.39
47280;BME280;34064;44.942;0.008;2023-03-20T00:57:03;99539.56;;;13.83;52.41
47280;BME280;34064;44.942;0.008;2023-03-20T00:59:37;99536.88;;;13.83;52.33
47280;BME280;34064;44.942;0.008;2023-03-20T01:02:06;99544.16;;;13.81;52.06
47280;BME280;34064;44.942;0.008;2023-03-20T01:04:37;99537.34;;;13.77;52.33
47280;BME280;34064;44.942;0.008;2023-03-20T01:07:05;99545.50;;;13.75;52.39
47280;BME280;34064;44.942;0.008;2023-03-20T01:09:32;99548.16;;;13.75;52.19
47280;BME280;34064;44.942;0.008;2023-03-20T01:11:59;99538.44;;;13.74;52.24
47280;BME280;34064;44.942;0.008;2023-03-20T01:14:26;99542.94;;;13.73;52.27
47280;BME280;34064;44.942;0.008;2023-03-20T01:16:52;99543.78;;;13.74;52.31
47280;BME280;34064;44.942;0.008;2023-03-20T01:19:19;99540.75;;;13.79;52.34
47280;BME280;34064;44.942;0.008;2023-03-20T01:21:45;99531.53;;;13.83;52.34
47280;BME280;34064;44.942;0.008;2023-03-20T01:24:12;99530.53;;;13.84;52.11
47280;BME280;34064;44.942;0.008;2023-03-20T01:26:40;99537.94;;;13.80;52.14
47280;BME280;34064;44.942;0.008;2023-03-20T01:31:43;99541.50;;;13.81;52.33
47280;BME280;34064;44.942;0.008;2023-03-20T01:34:10;99533.47;;;13.81;52.25
47280;BME280;34064;44.942;0.008;2023-03-20T01:36:37;99527.16;;;13.82;52.35
47280;BME280;34064;44.942;0.008;2023-03-20T01:39:04;99517.47;;;13.81;52.65
47280;BME280;34064;44.942;0.008;2023-03-20T01:41:31;99517.47;;;13.81;52.54
47280;BME280;34064;44.942;0.008;2023-03-20T01:43:58;99508.22;;;13.85;52.57
47280;BME280;34064;44.942;0.008;2023-03-20T01:46:32;99511.84;;;13.84;52.68
47280;BME280;34064;44.942;0.008;2023-03-20T01:50:08;99517.19;;;13.84;52.79
47280;BME280;34064;44.942;0.008;2023-03-20T01:51:55;99511.00;;;13.83;52.64
47280;BME280;34064;44.942;0.008;2023-03-20T01:54:31;99506.78;;;13.81;52.89
47280;BME280;34064;44.942;0.008;2023-03-20T01:57:18;99501.44;;;13.81;52.79
47280;BME280;34064;44.942;0.008;2023-03-20T01:59:59;99492.69;;;13.79;52.85
47280;BME280;34064;44.942;0.008;2023-03-20T02:02:30;99506.16;;;13.77;52.93
47280;BME280;34064;44.942;0.008;2023-03-20T02:05:04;99508.25;;;13.73;52.97
47280;BME280;34064;44.942;0.008;2023-03-20T02:07:33;99509.22;;;13.72;53.00
47280;BME280;34064;44.942;0.008;2023-03-20T02:10:06;99510.16;;;13.71;52.93
47280;BME280;34064;44.942;0.008;2023-03-20T02:12:34;99512.25;;;13.68;52.94
47280;BME280;34064;44.942;0.008;2023-03-20T02:15:02;99512.94;;;13.59;53.24
47280;BME280;34064;44.942;0.008;2023-03-20T02:17:30;99511.25;;;13.57;53.19
47280;BME280;34064;44.942;0.008;2023-03-20T02:28:58;99516.69;;;13.45;53.69
47280;BME280;34064;44.942;0.008;2023-03-20T02:40:55;99497.06;;;13.46;53.86
47280;BME280;34064;44.942;0.008;2023-03-20T02:46:42;99502.84;;;13.39;54.09
47280;BME280;34064;44.942;0.008;2023-03-20T02:54:32;99509.72;;;13.31;54.42
47280;BME280;34064;44.942;0.008;2023-03-20T02:57:02;99501.81;;;13.29;54.37
47280;BME280;34064;44.942;0.008;2023-03-20T02:59:54;99506.19;;;13.30;54.15
47280;BME280;34064;44.942;0.008;2023-03-20T03:02:32;99500.84;;;13.30;54.25
47280;BME280;34064;44.942;0.008;2023-03-20T03:05:03;99501.59;;;13.32;54.28
47280;BME280;34064;44.942;0.008;2023-03-20T03:07:32;99499.66;;;13.34;54.41
47280;BME280;34064;44.942;0.008;2023-03-20T03:10:11;99500.41;;;13.36;54.35
47280;BME280;34064;44.942;0.008;2023-03-20T03:12:43;99496.72;;;13.37;54.18
47280;BME280;34064;44.942;0.008;2023-03-20T03:15:13;99490.44;;;13.38;54.35
47280;BME280;34064;44.942;0.008;2023-03-20T03:17:43;99498.56;;;13.37;54.35
47280;BME280;34064;44.942;0.008;2023-03-20T03:20:23;99501.38;;;13.35;54.47
47280;BME280;34064;44.942;0.008;2023-03-20T03:22:51;99501.47;;;13.34;54.44
47280;BME280;34064;44.942;0.008;2023-03-20T03:25:18;99492.84;;;13.30;54.50
47280;BME280;34064;44.942;0.008;2023-03-20T03:27:53;99491.03;;;13.31;54.37
47280;BME280;34064;44.942;0.008;2023-03-20T03:30:26;99490.31;;;13.29;54.49
47280;BME280;34064;44.942;0.008;2023-03-20T03:35:32;99466.28;;;13.29;54.44
47280;BME280;34064;44.942;0.008;2023-03-20T03:38:05;99464.47;;;13.29;54.37
47280;BME280;34064;44.942;0.008;2023-03-20T03:43:42;99466.16;;;13.30;54.60
47280;BME280;34064;44.942;0.008;2023-03-20T03:46:16;99459.13;;;13.29;54.47
47280;BME280;34064;44.942;0.008;2023-03-20T03:48:49;99459.13;;;13.29;54.53
47280;BME280;34064;44.942;0.008;2023-03-20T03:51:22;99457.69;;;13.25;54.77
47280;BME280;34064;44.942;0.008;2023-03-20T03:54:03;99462.41;;;13.21;54.43
47280;BME280;34064;44.942;0.008;2023-03-20T03:56:32;99467.22;;;13.16;54.73
47280;BME280;34064;44.942;0.008;2023-03-20T03:59:04;99473.78;;;13.12;54.92
47280;BME280;34064;44.942;0.008;2023-03-20T04:01:33;99471.22;;;13.10;54.94
47280;BME280;34064;44.942;0.008;2023-03-20T04:04:04;99466.13;;;13.07;55.18
47280;BME280;34064;44.942;0.008;2023-03-20T04:06:32;99469.63;;;13.08;54.86
47280;BME280;34064;44.942;0.008;2023-03-20T04:08:58;99461.88;;;13.05;55.12
47280;BME280;34064;44.942;0.008;2023-03-20T04:11:26;99465.50;;;13.04;55.12
47280;BME280;34064;44.942;0.008;2023-03-20T04:13:55;99458.59;;;13.01;55.54
47280;BME280;34064;44.942;0.008;2023-03-20T04:16:24;99455.91;;;13.01;55.18
47280;BME280;34064;44.942;0.008;2023-03-20T04:18:51;99455.91;;;13.01;55.26
47280;BME280;34064;44.942;0.008;2023-03-20T04:21:18;99464.28;;;12.97;55.48
47280;BME280;34064;44.942;0.008;2023-03-20T04:23:45;99454.56;;;12.95;55.36
47280;BME280;34064;44.942;0.008;2023-03-20T04:26:11;99456.13;;;12.87;55.43
47280;BME280;34064;44.942;0.008;2023-03-20T04:28:38;99454.66;;;12.83;55.52
47280;BME280;34064;44.942;0.008;2023-03-20T04:31:04;99454.03;;;12.79;55.57
47280;BME280;34064;44.942;0.008;2023-03-20T04:33:31;99451.59;;;12.76;55.61
47280;BME280;34064;44.942;0.008;2023-03-20T04:35:57;99456.31;;;12.72;55.63
47280;BME280;34064;44.942;0.008;2023-03-20T04:38:24;99449.63;;;12.67;55.44
47280;BME280;34064;44.942;0.008;2023-03-20T04:40:51;99459.66;;;12.63;55.40
47280;BME280;34064;44.942;0.008;2023-03-20T04:43:17;99461.84;;;12.58;55.44
47280;BME280;34064;44.942;0.008;2023-03-20T04:45:44;99463.03;;;12.54;55.42
47280;BME280;34064;44.942;0.008;2023-03-20T04:48:10;99475.84;;;12.48;55.44
47280;BME280;34064;44.942;0.008;2023-03-20T04:50:37;99467.44;;;12.42;55.59
47280;BME280;34064;44.942;0.008;2023-03-20T04:53:03;99480.38;;;12.35;55.55
47280;BME280;34064;44.942;0.008;2023-03-20T04:55:30;99489.56;;;12.31;55.48
47280;BME280;34064;44.942;0.008;2023-03-20T04:57:56;99490.84;;;12.25;55.73
47280;BME280;34064;44.942;0.008;2023-03-20T05:00:22;99490.66;;;12.15;56.14
47280;BME280;34064;44.942;0.008;2023-03-20T05:02:49;99485.34;;;12.15;55.82
47280;BME280;34064;44.942;0.008;2023-03-20T05:05:15;99485.56;;;12.12;55.83
47280;BME280;34064;44.942;0.008;2023-03-20T05:07:41;99481.19;;;12.11;55.88
47280;BME280;34064;44.942;0.008;2023-03-20T05:10:08;99468.72;;;12.12;55.84
47280;BME280;34064;44.942;0.008;2023-03-20T05:12:35;99478.75;;;12.08;56.14
47280;BME280;34064;44.942;0.008;2023-03-20T05:15:01;99484.19;;;12.07;56.10
47280;BME280;34064;44.942;0.008;2023-03-20T05:17:28;99491.66;;;12.01;56.17
47280;BME280;34064;44.942;0.008;2023-03-20T05:19:54;99495.38;;;11.99;56.08
47280;BME280;34064;44.942;0.008;2023-03-20T05:22:20;99491.94;;;11.97;56.10
47280;BME280;34064;44.942;0.008;2023-03-20T05:24:47;99501.88;;;11.95;56.27
47280;BME280;34064;44.942;0.008;2023-03-20T05:27:13;99503.03;;;11.91;56.17
47280;BME280;34064;44.942;0.008;2023-03-20T05:29:39;99501.53;;;11.86;56.15
47280;BME280;34064;44.942;0.008;2023-03-20T05:32:06;99505.72;;;11.91;56.08
47280;BME280;34064;44.942;0.008;2023-03-20T05:34:32;99504.75;;;11.92;56.00
47280;BME280;34064;44.942;0.008;2023-03-20T05:36:58;99504.75;;;11.92;56.05
47280;BME280;34064;44.942;0.008;2023-03-20T05:39:25;99509.22;;;11.91;56.00
47280;BME280;34064;44.942;0.008;2023-03-20T05:41:51;99508.38;;;11.91;56.08
47280;BME280;34064;44.942;0.008;2023-03-20T05:44:18;99504.00;;;11.90;56.27
47280;BME280;34064;44.942;0.008;2023-03-20T05:46:46;99507.53;;;11.90;56.06
47280;BME280;34064;44.942;0.008;2023-03-20T05:49:14;99508.38;;;11.91;56.12
47280;BME280;34064;44.942;0.008;2023-03-20T05:51:42;99510.06;;;11.92;56.08
47280;BME280;34064;44.942;0.008;2023-03-20T05:54:09;99510.06;;;11.92;55.98
47280;BME280;34064;44.942;0.008;2023-03-20T05:56:37;99501.34;;;11.90;56.25
47280;BME280;34064;44.942;0.008;2023-03-20T05:59:05;99506.16;;;11.84;56.58
47280;BME280;34064;44.942;0.008;2023-03-20T06:01:32;99507.31;;;11.80;56.53
47280;BME280;34064;44.942;0.008;2023-03-20T06:04:00;99502.19;;;11.77;56.41
47280;BME280;34064;44.942;0.008;2023-03-20T06:06:27;99507.63;;;11.76;56.46
47280;BME280;34064;44.942;0.008;2023-03-20T06:08:55;99513.91;;;11.75;56.49
47280;BME280;34064;44.942;0.008;2023-03-20T06:11:23;99514.78;;;11.75;56.41
47280;BME280;34064;44.942;0.008;2023-03-20T06:13:53;99509.47;;;11.75;56.38
47280;BME280;34064;44.942;0.008;2023-03-20T06:16:24;99510.41;;;11.74;56.43
47280;BME280;34064;44.942;0.008;2023-03-20T06:18:52;99507.00;;;11.72;56.29
47280;BME280;34064;44.942;0.008;2023-03-20T06:21:20;99507.97;;;11.71;56.55
47280;BME280;34064;44.942;0.008;2023-03-20T06:23:50;99508.91;;;11.70;56.56
47280;BME280;34064;44.942;0.008;2023-03-20T06:26:19;99506.25;;;11.70;56.30
47280;BME280;34064;44.942;0.008;2023-03-20T06:28:47;99515.19;;;11.69;56.32
47280;BME280;34064;44.942;0.008;2023-03-20T06:31:14;99502.84;;;11.68;56.38
47280;BME280;34064;44.942;0.008;2023-03-20T06:33:43;99517.97;;;11.67;56.49
47280;BME280;34064;44.942;0.008;2023-03-20T06:36:10;99523.31;;;11.67;56.26
47280;BME280;34064;44.942;0.008;2023-03-20T06:38:37;99515.44;;;11.66;56.38
47280;BME280;34064;44.942;0.008;2023-03-20T06:41:03;99514.56;;;11.65;56.40
47280;BME280;34064;44.942;0.008;2023-03-20T06:43:30;99523.63;;;11.63;56.58
47280;BME280;34064;44.942;0.008;2023-03-20T06:45:56;99522.03;;;11.60;56.30
47280;BME280;34064;44.942;0.008;2023-03-20T06:48:23;99540.75;;;11.59;56.36
47280;BME280;34064;44.942;0.008;2023-03-20T06:50:50;99538.19;;;11.57;56.54
47280;BME280;34064;44.942;0.008;2023-03-20T06:53:17;99533.94;;;11.54;56.60
47280;BME280;34064;44.942;0.008;2023-03-20T06:55:48;99537.56;;;11.53;56.56
47280;BME280;34064;44.942;0.008;2023-03-20T06:58:14;99543.00;;;11.52;56.53
47280;BME280;34064;44.942;0.008;2023-03-20T07:00:41;99546.69;;;11.49;56.64
47280;BME280;34064;44.942;0.008;2023-03-20T07:03:08;99544.03;;;11.49;56.64
47280;BME280;34064;44.942;0.008;2023-03-20T07:05:35;99535.03;;;11.52;56.56
47280;BME280;34064;44.942;0.008;2023-03-20T07:08:01;99533.94;;;11.54;56.47
47280;BME280;34064;44.942;0.008;2023-03-20T07:10:27;99533.63;;;11.59;56.37
47280;BME280;34064;44.942;0.008;2023-03-20T07:12:54;99534.38;;;11.61;56.47
47280;BME280;34064;44.942;0.008;2023-03-20T07:15:20;99529.69;;;11.65;56.68
47280;BME280;34064;44.942;0.008;2023-03-20T07:17:47;99524.13;;;11.68;56.17
47280;BME280;34064;44.942;0.008;2023-03-20T07:20:14;99524.38;;;11.78;56.01
47280;BME280;34064;44.942;0.008;2023-03-20T07:22:40;99528.28;;;11.85;55.95
47280;BME280;34064;44.942;0.008;2023-03-20T07:25:08;99516.25;;;11.92;55.66
47280;BME280;34064;44.942;0.008;2023-03-20T07:27:35;99515.00;;;11.98;55.85
47280;BME280;34064;44.942;0.008;2023-03-20T07:30:03;99519.78;;;12.06;55.64
47280;BME280;34064;44.942;0.008;2023-03-20T07:32:30;99509.63;;;12.11;55.63
47280;BME280;34064;44.942;0.008;2023-03-20T07:34:56;99512.72;;;12.17;55.50
47280;BME280;34064;44.942;0.008;2023-03-20T07:37:23;99508.88;;;12.22;55.75
47280;BME280;34064;44.942;0.008;2023-03-20T07:39:49;99509.16;;;12.30;55.67
47280;BME280;34064;44.942;0.008;2023-03-20T07:42:15;99499.75;;;12.37;55.48
47280;BME280;34064;44.942;0.008;2023-03-20T07:44:42;99495.59;;;12.46;55.32
47280;BME280;34064;44.942;0.008;2023-03-20T07:47:09;99498.53;;;12.54;55.23
47280;BME280;34064;44.942;0.008;2023-03-20T07:49:35;99500.59;;;12.62;55.11
47280;BME280;34064;44.942;0.008;2023-03-20T07:52:02;99497.50;;;12.68;54.95
47280;BME280;34064;44.942;0.008;2023-03-20T07:54:28;99487.13;;;12.76;54.63
47280;BME280;34064;44.942;0.008;2023-03-20T07:56:54;99481.22;;;12.84;54.46
47280;BME280;34064;44.942;0.008;2023-03-20T07:59:21;99477.00;;;12.93;53.97
47280;BME280;34064;44.942;0.008;2023-03-20T08:01:47;99486.22;;;13.00;53.58
47280;BME280;34064;44.942;0.008;2023-03-20T08:04:13;99487.47;;;13.07;53.49
47280;BME280;34064;44.942;0.008;2023-03-20T08:06:44;99477.06;;;13.16;53.49
47280;BME280;34064;44.942;0.008;2023-03-20T08:09:10;99468.56;;;13.22;53.28
47280;BME280;34064;44.942;0.008;2023-03-20T08:11:37;99469.78;;;13.29;53.24
47280;BME280;34064;44.942;0.008;2023-03-20T08:14:03;99462.91;;;13.38;53.06
47280;BME280;34064;44.942;0.008;2023-03-20T08:16:29;99463.31;;;13.45;52.90
47280;BME280;34064;44.942;0.008;2023-03-20T08:18:56;99465.38;;;13.52;52.52
47280;BME280;34064;44.942;0.008;2023-03-20T08:21:27;99458.69;;;13.58;51.65
47280;BME280;34064;44.942;0.008;2023-03-20T08:23:54;99458.84;;;13.68;51.83
47280;BME280;34064;44.942;0.008;2023-03-20T08:26:21;99457.50;;;13.73;51.21
47280;BME280;34064;44.942;0.008;2023-03-20T08:28:48;99454.56;;;13.77;51.55
47280;BME280;34064;44.942;0.008;2023-03-20T08:31:16;99457.00;;;13.80;51.10
47280;BME280;34064;44.942;0.008;2023-03-20T08:33:45;99454.34;;;13.91;51.34
47280;BME280;34064;44.942;0.008;2023-03-20T08:36:12;99444.84;;;13.98;51.24
47280;BME280;34064;44.942;0.008;2023-03-20T08:38:40;99454.19;;;14.04;51.22
47280;BME280;34064;44.942;0.008;2023-03-20T08:41:07;99445.44;;;14.13;49.99
47280;BME280;34064;44.942;0.008;2023-03-20T08:43:34;99449.66;;;14.16;50.05
47280;BME280;34064;44.942;0.008;2023-03-20T08:46:01;99445.41;;;14.25;49.82
47280;BME280;34064;44.942;0.008;2023-03-20T08:48:27;99454.25;;;14.37;50.23
47280;BME280;34064;44.942;0.008;2023-03-20T08:50:54;99448.38;;;14.43;50.13
47280;BME280;34064;44.942;0.008;2023-03-20T08:53:20;99443.38;;;14.49;50.11
47280;BME280;34064;44.942;0.008;2023-03-20T08:55:50;99438.81;;;14.61;49.68
47280;BME280;34064;44.942;0.008;2023-03-20T08:58:18;99443.44;;;14.71;48.94
47280;BME280;34064;44.942;0.008;2023-03-20T09:00:45;99441.25;;;14.76;48.14
47280;BME280;34064;44.942;0.008;2023-03-20T09:03:16;99431.28;;;14.78;48.61
47280;BME280;34064;44.942;0.008;2023-03-20T09:05:43;99435.22;;;14.84;48.78
47280;BME280;34064;44.942;0.008;2023-03-20T09:08:10;99426.81;;;14.88;48.55
47280;BME280;34064;44.942;0.008;2023-03-20T09:10:37;99429.97;;;14.93;48.24
47280;BME280;34064;44.942;0.008;2023-03-20T09:13:03;99420.44;;;15.01;48.13
47280;BME280;34064;44.942;0.008;2023-03-20T09:15:30;99413.72;;;15.06;48.17
47280;BME280;34064;44.942;0.008;2023-03-20T09:17:56;99406.84;;;15.13;47.60
47280;BME280;34064;44.942;0.008;2023-03-20T09:20:23;99411.06;;;15.16;47.71
47280;BME280;34064;44.942;0.008;2023-03-20T09:22:49;99408.28;;;15.18;47.76
47280;BME280;34064;44.942;0.008;2023-03-20T09:25:15;99415.19;;;15.20;47.37
47280;BME280;34064;44.942;0.008;2023-03-20T09:27:42;99402.84;;;15.29;47.75
47280;BME280;34064;44.942;0.008;2023-03-20T09:30:10;99409.22;;;15.38;47.26
47280;BME280;34064;44.942;0.008;2023-03-20T09:32:37;99400.94;;;15.41;47.08
47280;BME280;34064;44.942;0.008;2023-03-20T09:35:04;99397.59;;;15.49;47.46
47280;BME280;34064;44.942;0.008;2023-03-20T09:37:31;99400.56;;;15.55;47.66
47280;BME280;34064;44.942;0.008;2023-03-20T09:39:58;99396.22;;;15.64;47.29
47280;BME280;34064;44.942;0.008;2023-03-20T09:45:17;99392.75;;;15.83;47.12
47280;BME280;34064;44.942;0.008;2023-03-20T09:48:04;99389.44;;;15.91;46.94
47280;BME280;34064;44.942;0.008;2023-03-20T09:50:48;99379.00;;;15.98;47.36
47280;BME280;34064;44.942;0.008;2023-03-20T09:53:32;99370.84;;;16.09;46.14
47280;BME280;34064;44.942;0.008;2023-03-20T09:56:02;99356.72;;;16.17;45.77
47280;BME280;34064;44.942;0.008;2023-03-20T09:58:37;99355.63;;;16.19;46.06
47280;BME280;34064;44.942;0.008;2023-03-20T10:01:05;99345.59;;;16.21;46.48
47280;BME280;34064;44.942;0.008;2023-03-20T10:06:15;99351.53;;;16.35;46.13
47280;BME280;34064;44.942;0.008;2023-03-20T10:08:42;99352.38;;;16.45;46.19
47280;BME280;34064;44.942;0.008;2023-03-20T10:11:48;99350.38;;;16.57;45.83
47280;BME280;34064;44.942;0.008;2023-03-20T10:17:35;99334.53;;;16.83;45.77
47280;BME280;34064;44.942;0.008;2023-03-20T10:20:20;99337.34;;;16.92;44.77
47280;BME280;34064;44.942;0.008;2023-03-20T10:22:54;99330.69;;;16.96;45.05
47280;BME280;34064;44.942;0.008;2023-03-20T10:26:11;99322.47;;;17.07;44.92
47280;BME280;34064;44.942;0.008;2023-03-20T10:28:30;99314.25;;;17.19;44.67
47280;BME280;34064;44.942;0.008;2023-03-20T10:31:21;99316.03;;;17.28;44.39
47280;BME280;34064;44.942;0.008;2023-03-20T10:39:32;99301.03;;;17.35;44.09
47280;BME280;34064;44.942;0.008;2023-03-20T10:42:03;99296.59;;;17.44;44.18
47280;BME280;34064;44.942;0.008;2023-03-20T10:44:43;99286.50;;;17.56;43.71
47280;BME280;34064;44.942;0.008;2023-03-20T10:47:15;99279.59;;;17.71;43.60
47280;BME280;34064;44.942;0.008;2023-03-20T10:49:49;99281.63;;;17.69;43.43
47280;BME280;34064;44.942;0.008;2023-03-20T10:52:24;99283.44;;;17.69;42.77
47280;BME280;34064;44.942;0.008;2023-03-20T10:55:07;99272.56;;;17.70;42.97
47280;BME280;34064;44.942;0.008;2023-03-20T10:57:43;99278.16;;;17.77;43.09
47280;BME280;34064;44.942;0.008;2023-03-20T11:00:21;99274.41;;;17.88;42.94
47280;BME280;34064;44.942;0.008;2023-03-20T11:02:48;99276.41;;;17.86;42.69
47280;BME280;34064;44.942;0.008;2023-03-20T11:07:59;99254.38;;;18.00;42.64
47280;BME280;34064;44.942;0.008;2023-03-20T11:10:27;99255.00;;;18.12;42.45
47280;BME280;34064;44.942;0.008;2023-03-20T11:12:53;99250.75;;;18.28;42.51
47280;BME280;34064;44.942;0.008;2023-03-20T11:15:33;99241.91;;;18.35;41.92
47280;BME280;34064;44.942;0.008;2023-03-20T11:18:04;99240.25;;;18.43;42.29
47280;BME280;34064;44.942;0.008;2023-03-20T11:20:44;99239.00;;;18.55;41.97
47280;BME280;34064;44.942;0.008;2023-03-20T11:23:16;99230.13;;;18.63;41.60
47280;BME280;34064;44.942;0.008;2023-03-20T11:25:57;99225.44;;;18.65;41.69
47280;BME280;34064;44.942;0.008;2023-03-20T11:31:14;99210.56;;;18.87;41.47
47280;BME280;34064;44.942;0.008;2023-03-20T11:33:59;99212.19;;;18.98;41.03
47280;BME280;34064;44.942;0.008;2023-03-20T11:36:30;99188.34;;;19.20;41.04
47280;BME280;34064;44.942;0.008;2023-03-20T11:39:16;99176.59;;;19.37;40.95
47280;BME280;34064;44.942;0.008;2023-03-20T11:41:50;99176.66;;;19.45;40.19
47280;BME280;34064;44.942;0.008;2023-03-20T11:47:05;99168.06;;;19.58;40.19
47280;BME280;34064;44.942;0.008;2023-03-20T11:49:55;99174.78;;;19.62;39.56
47280;BME280;34064;44.942;0.008;2023-03-20T11:52:28;99185.25;;;19.57;40.12
47280;BME280;34064;44.942;0.008;2023-03-20T11:54:59;99181.19;;;19.61;39.98
47280;BME280;34064;44.942;0.008;2023-03-20T11:59:59;99177.66;;;19.53;39.71
47280;BME280;34064;44.942;0.008;2023-03-20T12:02:26;99172.44;;;19.59;39.59
47280;BME280;34064;44.942;0.008;2023-03-20T12:04:52;99157.13;;;19.76;40.00
47280;BME280;34064;44.942;0.008;2023-03-20T12:07:31;99150.75;;;19.86;39.54
47280;BME280;34064;44.942;0.008;2023-03-20T12:10:11;99141.31;;;19.90;39.17
47280;BME280;34064;44.942;0.008;2023-03-20T12:13:01;99141.50;;;19.97;39.35
47280;BME280;34064;44.942;0.008;2023-03-20T12:15:43;99139.78;;;20.04;39.32
47280;BME280;34064;44.942;0.008;2023-03-20T12:18:34;99130.84;;;20.12;38.96
47280;BME280;34064;44.942;0.008;2023-03-20T12:24:36;99119.50;;;20.33;38.80
47280;BME280;34064;44.942;0.008;2023-03-20T12:27:24;99108.66;;;20.49;38.44
47280;BME280;34064;44.942;0.008;2023-03-20T12:30:13;99094.16;;;20.50;36.93
47280;BME280;34064;44.942;0.008;2023-03-20T12:33:06;99096.84;;;20.50;37.66
47280;BME280;34064;44.942;0.008;2023-03-20T12:35:42;99091.59;;;20.57;37.59
47280;BME280;34064;44.942;0.008;2023-03-20T12:38:36;99088.53;;;20.60;37.46
47280;BME280;34064;44.942;0.008;2023-03-20T12:41:15;99087.97;;;20.73;37.78
47280;BME280;34064;44.942;0.008;2023-03-20T12:47:28;99073.50;;;20.97;37.96
47280;BME280;34064;44.942;0.008;2023-03-20T12:50:22;99074.50;;;21.04;37.11
47280;BME280;34064;44.942;0.008;2023-03-20T12:58:45;99068.66;;;20.93;36.48
47280;BME280;34064;44.942;0.008;2023-03-20T13:01:21;99056.78;;;21.02;36.08
47280;BME280;34064;44.942;0.008;2023-03-20T13:09:50;99048.38;;;20.97;35.80
47280;BME280;34064;44.942;0.008;2023-03-20T13:12:46;99043.16;;;20.95;36.73
47280;BME280;34064;44.942;0.008;2023-03-20T13:15:24;99034.75;;;21.13;36.46
47280;BME280;34064;44.942;0.008;2023-03-20T13:18:05;99022.44;;;21.34;36.35
47280;BME280;34064;44.942;0.008;2023-03-20T13:20:49;99017.28;;;21.47;35.85
47280;BME280;34064;44.942;0.008;2023-03-20T13:23:32;99014.28;;;21.57;35.73
47280;BME280;34064;44.942;0.008;2023-03-20T13:29:22;99012.69;;;21.48;35.39
47280;BME280;34064;44.942;0.008;2023-03-20T13:34:53;98989.91;;;21.65;35.61
47280;BME280;34064;44.942;0.008;2023-03-20T13:37:32;98992.16;;;21.77;35.70
47280;BME280;34064;44.942;0.008;2023-03-20T13:42:58;98978.28;;;21.95;35.22
47280;BME280;34064;44.942;0.008;2023-03-20T13:45:40;98968.03;;;22.05;35.23
47280;BME280;34064;44.942;0.008;2023-03-20T13:48:39;98962.09;;;22.17;35.35
47280;BME280;34064;44.942;0.008;2023-03-20T13:51:26;98960.72;;;22.21;34.74
47280;BME280;34064;44.942;0.008;2023-03-20T13:56:44;98962.31;;;22.15;34.86
47280;BME280;34064;44.942;0.008;2023-03-20T14:02:19;98952.75;;;22.34;34.25
47280;BME280;34064;44.942;0.008;2023-03-20T14:04:50;98951.34;;;22.38;34.36
47280;BME280;34064;44.942;0.008;2023-03-20T14:07:47;98949.78;;;22.44;34.24
47280;BME280;34064;44.942;0.008;2023-03-20T14:13:03;98943.59;;;22.50;34.91
47280;BME280;34064;44.942;0.008;2023-03-20T14:15:35;98946.38;;;22.57;34.24
47280;BME280;34064;44.942;0.008;2023-03-20T14:18:12;98941.88;;;22.64;33.96
47280;BME280;34064;44.942;0.008;2023-03-20T14:20:41;98946.53;;;22.70;34.38
47280;BME280;34064;44.942;0.008;2023-03-20T14:23:35;98936.78;;;22.76;33.55
47280;BME280;34064;44.942;0.008;2023-03-20T14:26:09;98928.09;;;22.81;34.28
47280;BME280;34064;44.942;0.008;2023-03-20T14:28:57;98925.25;;;22.89;34.42
47280;BME280;34064;44.942;0.008;2023-03-20T14:31:32;98916.53;;;22.94;34.05
47280;BME280;34064;44.942;0.008;2023-03-20T14:36:50;98905.03;;;23.13;33.95
47280;BME280;34064;44.942;0.008;2023-03-20T14:39:33;98889.75;;;23.27;33.58
47280;BME280;34064;44.942;0.008;2023-03-20T14:44:49;98879.44;;;23.51;34.03
47280;BME280;34064;44.942;0.008;2023-03-20T14:53:12;98862.41;;;23.99;33.07
47280;BME280;34064;44.942;0.008;2023-03-20T14:55:57;98858.25;;;24.10;32.67
47280;BME280;34064;44.942;0.008;2023-03-20T15:01:03;98843.44;;;24.19;31.86
47280;BME280;34064;44.942;0.008;2023-03-20T15:03:31;98843.03;;;24.16;32.61
47280;BME280;34064;44.942;0.008;2023-03-20T15:06:00;98838.41;;;24.09;32.51
47280;BME280;34064;44.942;0.008;2023-03-20T15:08:32;98835.47;;;24.04;32.52
47280;BME280;34064;44.942;0.008;2023-03-20T15:11:06;98840.47;;;24.01;31.83
47280;BME280;34064;44.942;0.008;2023-03-20T15:13:34;98847.91;;;23.85;32.57
47280;BME280;34064;44.942;0.008;2023-03-20T15:16:11;98851.66;;;23.84;32.46
47280;BME280;34064;44.942;0.008;2023-03-20T15:18:58;98853.34;;;23.85;32.29